createdAt,value
2019-03-17T00:00:55.028Z,1.90
2019-03-17T00:03:24.928Z,2.53
2019-03-17T00:05:55.017Z,2.70
2019-03-17T00:08:24.898Z,2.90
2019-03-17T00:10:55.169Z,2.60
2019-03-17T00:13:25.515Z,2.13
2019-03-17T00:15:55.399Z,2.50
2019-03-17T00:18:25.274Z,2.47
2019-03-17T00:20:55.222Z,2.17
2019-03-17T00:23:25.336Z,2.37
2019-03-17T00:25:55.184Z,2.47
2019-03-17T00:28:25.051Z,2.40
2019-03-17T00:30:54.971Z,2.27
2019-03-17T00:33:24.944Z,2.83
2019-03-17T00:35:55.579Z,2.70
2019-03-17T00:38:25.793Z,2.63
2019-03-17T00:40:55.715Z,2.67
2019-03-17T00:43:25.600Z,2.40
2019-03-17T00:45:55.391Z,2.50
2019-03-17T00:48:25.311Z,2.70
2019-03-17T00:50:55.999Z,1.60
2019-03-17T00:53:25.979Z,2.13
2019-03-17T00:55:55.847Z,1.97
2019-03-17T00:58:25.736Z,2.60
2019-03-17T01:00:55.632Z,2.30
2019-03-17T01:03:25.613Z,2.30
2019-03-17T01:05:55.457Z,2.17
2019-03-17T01:08:25.347Z,2.50
2019-03-17T01:10:55.120Z,1.90
2019-03-17T01:13:24.952Z,2.40
2019-03-17T01:15:54.957Z,2.80
2019-03-17T01:18:24.898Z,2.33
2019-03-17T01:20:54.807Z,2.37
2019-03-17T01:23:24.657Z,1.97
2019-03-17T01:25:55.006Z,2.40
2019-03-17T01:28:24.875Z,2.60
2019-03-17T01:30:55.884Z,2.60
2019-03-17T01:33:26.039Z,2.90
2019-03-17T01:35:55.947Z,2.33
2019-03-17T01:38:25.901Z,1.67
2019-03-17T01:40:55.849Z,2.47
2019-03-17T01:43:25.846Z,2.90
2019-03-17T01:45:55.677Z,2.50
2019-03-17T01:48:25.668Z,1.97
2019-03-17T01:50:55.577Z,2.30
2019-03-17T01:53:25.625Z,2.33
2019-03-17T01:55:55.711Z,1.47
2019-03-17T01:58:25.499Z,2.60
2019-03-17T02:00:55.415Z,2.23
2019-03-17T02:03:25.765Z,1.70
2019-03-17T02:05:55.771Z,1.90
2019-03-17T02:08:26.129Z,2.60
2019-03-17T02:10:56.086Z,1.93
2019-03-17T02:13:26.087Z,2.17
2019-03-17T02:15:55.930Z,3.00
2019-03-17T02:18:26.179Z,2.23
2019-03-17T02:20:56.056Z,2.37
2019-03-17T02:23:26.006Z,2.37
2019-03-17T02:25:55.861Z,2.77
2019-03-17T02:28:25.696Z,2.00
2019-03-17T02:30:55.618Z,1.97
2019-03-17T02:33:25.640Z,3.03
2019-03-17T02:35:56.010Z,3.33
2019-03-17T02:38:26.123Z,2.20
2019-03-17T02:40:56.383Z,2.03
2019-03-17T02:43:26.677Z,3.00
2019-03-17T02:45:56.594Z,2.67
2019-03-17T02:48:26.515Z,3.10
2019-03-17T02:50:56.527Z,2.87
2019-03-17T02:53:26.507Z,2.20
2019-03-17T02:55:56.361Z,3.13
2019-03-17T02:58:26.236Z,2.77
2019-03-17T03:00:56.227Z,2.53
2019-03-17T03:03:26.651Z,2.17
2019-03-17T03:05:56.623Z,2.60
2019-03-17T03:08:26.723Z,2.47
2019-03-17T03:10:56.755Z,1.63
2019-03-17T03:13:26.834Z,1.73
2019-03-17T03:15:56.863Z,2.97
2019-03-17T03:18:26.727Z,2.20
2019-03-17T03:20:56.473Z,1.97
2019-03-17T03:23:26.305Z,2.23
2019-03-17T03:25:56.131Z,1.50
2019-03-17T03:28:26.438Z,2.37
2019-03-17T03:30:57.093Z,2.23
2019-03-17T03:33:27.019Z,2.70
2019-03-17T03:36:10.099Z,2.30
2019-03-17T03:38:28.647Z,2.77
2019-03-17T03:40:58.612Z,2.90
2019-03-17T03:43:29.731Z,3.13
2019-03-17T03:45:59.928Z,2.87
2019-03-17T03:48:29.897Z,2.53
2019-03-17T03:50:59.933Z,2.37
2019-03-17T03:53:29.787Z,2.90
2019-03-17T03:55:59.784Z,1.47
2019-03-17T03:58:29.735Z,2.40
2019-03-17T04:00:59.666Z,2.77
2019-03-17T04:03:30.619Z,2.63
2019-03-17T04:06:00.732Z,2.00
2019-03-17T04:08:30.700Z,2.33
2019-03-17T04:11:00.549Z,2.33
2019-03-17T04:13:30.587Z,2.30
2019-03-17T04:16:00.309Z,2.67
2019-03-17T04:18:30.380Z,3.07
2019-03-17T04:21:00.268Z,2.70
2019-03-17T04:23:30.255Z,2.30
2019-03-17T04:26:00.223Z,2.50
2019-03-17T04:28:30.367Z,2.30
2019-03-17T04:31:00.615Z,2.93
2019-03-17T04:33:30.501Z,2.67
2019-03-17T04:36:00.353Z,2.97
2019-03-17T04:38:30.243Z,2.40
2019-03-17T04:41:00.031Z,3.00
2019-03-17T04:43:30.187Z,2.87
2019-03-17T04:46:00.032Z,1.93
2019-03-17T04:48:30.969Z,2.93
2019-03-17T04:51:00.825Z,2.73
2019-03-17T04:53:30.755Z,3.17
2019-03-17T04:56:00.595Z,3.43
2019-03-17T04:58:30.692Z,3.17
2019-03-17T05:01:00.566Z,3.40
2019-03-17T05:03:30.397Z,3.43
2019-03-17T05:06:00.282Z,3.67
2019-03-17T05:08:30.234Z,3.17
2019-03-17T05:11:00.192Z,4.00
2019-03-17T05:13:30.192Z,3.07
2019-03-17T05:16:00.170Z,3.33
2019-03-17T05:18:30.113Z,2.67
2019-03-17T05:20:59.963Z,2.60
2019-03-17T05:23:29.782Z,2.97
2019-03-17T05:25:59.670Z,3.73
2019-03-17T05:28:29.681Z,3.20
2019-03-17T05:30:59.598Z,4.53
2019-03-17T05:33:29.583Z,4.13
2019-03-17T05:35:59.403Z,3.67
2019-03-17T05:38:29.600Z,3.77
2019-03-17T05:40:59.633Z,3.77
2019-03-17T05:43:29.883Z,4.37
2019-03-17T05:46:01.051Z,4.70
2019-03-17T05:48:31.485Z,4.93
2019-03-17T05:51:01.662Z,4.60
2019-03-17T05:53:32.030Z,3.63
2019-03-17T05:56:01.880Z,5.67
2019-03-17T05:58:32.083Z,4.17
2019-03-17T06:01:01.888Z,3.93
2019-03-17T06:03:31.900Z,4.27
2019-03-17T06:06:01.804Z,2.70
2019-03-17T06:08:33.661Z,4.03
2019-03-17T06:11:03.435Z,5.13
2019-03-17T06:13:33.309Z,3.87
2019-03-17T06:16:03.354Z,3.97
2019-03-17T06:18:33.537Z,4.40
2019-03-17T06:21:03.453Z,4.37
2019-03-17T06:23:33.375Z,6.00
2019-03-17T06:26:03.345Z,5.63
2019-03-17T06:28:33.201Z,3.83
2019-03-17T06:31:03.045Z,4.63
2019-03-17T06:33:32.975Z,4.07
2019-03-17T06:36:02.832Z,4.13
2019-03-17T06:38:32.730Z,4.80
2019-03-17T06:41:04.294Z,4.03
2019-03-17T06:43:34.488Z,5.37
2019-03-17T06:46:04.550Z,4.83
2019-03-17T06:48:35.189Z,5.10
2019-03-17T06:51:05.037Z,4.03
2019-03-17T06:53:34.956Z,4.40
2019-03-17T06:56:05.924Z,4.53
2019-03-17T06:58:35.886Z,5.30
2019-03-17T07:01:05.855Z,4.03
2019-03-17T07:03:35.802Z,5.07
2019-03-17T07:06:05.758Z,4.37
2019-03-17T07:08:36.178Z,4.67
2019-03-17T07:11:06.287Z,2.57
2019-03-17T07:13:36.545Z,5.37
2019-03-17T07:16:06.546Z,5.00
2019-03-17T07:18:36.765Z,4.23
2019-03-17T07:21:06.919Z,4.97
2019-03-17T07:23:36.792Z,4.00
2019-03-17T07:26:06.885Z,3.97
2019-03-17T07:28:36.794Z,4.17
2019-03-17T07:31:06.769Z,3.90
2019-03-17T07:33:36.819Z,4.50
2019-03-17T07:36:07.082Z,4.03
2019-03-17T07:38:37.011Z,3.07
2019-03-17T07:41:06.912Z,3.77
2019-03-17T07:43:37.252Z,4.70
2019-03-17T07:46:07.388Z,3.90
2019-03-17T07:48:37.628Z,3.50
2019-03-17T07:51:07.906Z,2.63
2019-03-17T07:53:37.797Z,3.43
2019-03-17T07:56:07.783Z,4.23
2019-03-17T07:58:37.608Z,3.90
2019-03-17T08:01:07.644Z,3.57
2019-03-17T08:03:37.619Z,2.80
2019-03-17T08:06:07.447Z,2.50
2019-03-17T08:08:37.859Z,2.60
2019-03-17T08:11:07.914Z,2.70
2019-03-17T08:13:38.915Z,2.73
2019-03-17T08:16:09.835Z,3.27
2019-03-17T08:18:39.695Z,3.33
2019-03-17T08:21:09.716Z,2.43
2019-03-17T08:23:39.966Z,3.80
2019-03-17T08:26:09.958Z,3.08
2019-03-17T08:28:39.889Z,3.37
2019-03-17T08:31:09.890Z,3.50
2019-03-17T08:33:39.780Z,3.23
2019-03-17T08:36:10.413Z,1.60
2019-03-17T08:38:41.890Z,1.10
2019-03-17T08:41:12.031Z,1.00
2019-03-17T08:43:53.463Z,1.00
2019-03-17T08:46:13.631Z,0.70
2019-03-17T08:48:44.880Z,0.80
2019-03-17T08:51:15.085Z,0.77
2019-03-17T08:53:45.084Z,0.50
2019-03-17T08:56:15.339Z,0.53
2019-03-17T08:58:45.332Z,0.60
2019-03-17T09:01:15.567Z,0.40
2019-03-17T09:03:45.975Z,0.77
2019-03-17T09:06:16.622Z,0.50
2019-03-17T09:08:46.907Z,0.43
2019-03-17T09:11:17.762Z,0.70
2019-03-17T09:13:48.139Z,0.53
2019-03-17T09:16:18.124Z,0.73
2019-03-17T09:18:48.335Z,0.80
2019-03-17T09:21:18.624Z,0.60
2019-03-17T09:23:49.006Z,0.50
2019-03-17T09:26:19.238Z,0.70
2019-03-17T09:28:49.725Z,0.70
2019-03-17T09:31:19.745Z,0.70
2019-03-17T09:33:49.870Z,0.70
2019-03-17T09:36:19.987Z,0.87
2019-03-17T09:38:49.846Z,0.80
2019-03-17T09:42:35.189Z,0.63
2019-03-17T09:45:06.426Z,0.60
2019-03-17T09:47:36.834Z,0.60
2019-03-17T09:50:07.938Z,1.03
2019-03-17T09:52:37.838Z,1.03
2019-03-17T09:55:08.037Z,0.90
2019-03-17T09:57:38.767Z,0.98
2019-03-17T10:00:10.387Z,0.60
2019-03-17T10:02:40.354Z,1.47
2019-03-17T10:05:10.496Z,0.90
2019-03-17T10:07:40.768Z,0.90
2019-03-17T10:10:12.165Z,1.40
2019-03-17T10:12:42.547Z,1.03
2019-03-17T10:15:13.022Z,0.60
2019-03-17T10:17:43.299Z,1.10
2019-03-17T10:20:14.951Z,1.10
2019-03-17T10:22:45.178Z,0.80
2019-03-17T10:25:15.112Z,1.13
2019-03-17T10:27:45.142Z,0.80
2019-03-17T10:30:15.118Z,0.80
2019-03-17T10:32:45.076Z,0.77
2019-03-17T10:35:15.410Z,1.23
2019-03-17T10:37:45.363Z,1.10
2019-03-17T10:40:15.357Z,1.10
2019-03-17T10:42:45.496Z,0.90
2019-03-17T10:45:15.458Z,1.20
2019-03-17T10:47:46.679Z,1.30
2019-03-17T10:50:16.726Z,1.50
2019-03-17T10:52:46.647Z,1.00
2019-03-17T10:55:16.615Z,1.40
2019-03-17T10:57:47.045Z,1.20
2019-03-17T11:00:17.047Z,1.53
2019-03-17T11:02:47.122Z,1.57
2019-03-17T11:05:18.340Z,1.62
2019-03-17T11:07:49.040Z,1.70
2019-03-17T11:10:19.418Z,1.93
2019-03-17T11:12:50.062Z,2.00
2019-03-17T11:15:20.502Z,2.10
2019-03-17T11:17:50.641Z,1.50
2019-03-17T11:20:20.879Z,1.27
2019-03-17T11:22:50.904Z,1.80
2019-03-17T11:25:21.273Z,1.93
2019-03-17T11:27:51.549Z,2.00
2019-03-17T11:30:24.161Z,2.02
2019-03-17T11:32:54.577Z,2.50
2019-03-17T11:35:24.511Z,1.87
2019-03-17T11:37:54.707Z,1.47
2019-03-17T11:40:24.755Z,1.60
2019-03-17T11:42:55.066Z,1.50
2019-03-17T11:45:25.052Z,1.73
2019-03-17T11:47:55.480Z,1.53
2019-03-17T11:50:25.689Z,1.60
2019-03-17T11:52:56.082Z,1.27
2019-03-17T11:55:26.102Z,0.93
2019-03-17T11:57:56.062Z,0.87
2019-03-17T12:00:26.341Z,0.70
2019-03-17T12:02:56.256Z,0.67
2019-03-17T12:05:26.571Z,0.80
2019-03-17T12:07:56.540Z,0.60
2019-03-17T12:10:26.478Z,0.70
2019-03-17T12:12:56.959Z,0.60
2019-03-17T12:15:27.234Z,0.70
2019-03-17T12:17:57.178Z,0.80
2019-03-17T12:20:27.190Z,1.03
2019-03-17T12:22:57.175Z,1.00
2019-03-17T12:25:27.223Z,1.00
2019-03-17T12:27:57.463Z,0.90
2019-03-17T12:30:27.394Z,1.10
2019-03-17T12:32:57.303Z,0.87
2019-03-17T12:35:27.571Z,1.10
2019-03-17T12:37:57.532Z,1.40
2019-03-17T12:40:28.023Z,1.30
2019-03-17T12:42:58.075Z,1.10
2019-03-17T12:45:28.204Z,0.90
2019-03-17T12:47:58.281Z,1.30
2019-03-17T12:50:28.198Z,1.20
2019-03-17T12:52:59.455Z,0.90
2019-03-17T12:55:29.256Z,1.70
2019-03-17T12:57:59.442Z,0.90
2019-03-17T13:00:29.715Z,0.93
2019-03-17T13:03:00.006Z,1.00
2019-03-17T13:05:29.844Z,0.70
2019-03-17T13:08:00.078Z,0.90
2019-03-17T13:10:29.891Z,0.97
2019-03-17T13:13:00.342Z,1.30
2019-03-17T13:15:30.213Z,0.90
2019-03-17T13:18:00.407Z,1.00
2019-03-17T13:20:30.278Z,1.50
2019-03-17T13:23:01.017Z,1.00
2019-03-17T13:25:31.362Z,0.80
2019-03-17T13:28:01.425Z,0.95
2019-03-17T13:30:31.229Z,0.82
2019-03-17T13:33:01.164Z,1.02
2019-03-17T13:35:31.054Z,1.22
2019-03-17T13:38:01.319Z,0.93
2019-03-17T13:40:31.489Z,1.10
2019-03-17T13:43:01.472Z,1.40
2019-03-17T13:45:31.589Z,1.23
2019-03-17T13:48:01.666Z,1.30
2019-03-17T13:50:31.887Z,1.30
2019-03-17T13:53:02.078Z,1.60
2019-03-17T13:55:32.166Z,1.45
2019-03-17T13:58:02.194Z,1.30
2019-03-17T14:00:32.412Z,1.70
2019-03-17T14:03:02.717Z,1.80
2019-03-17T14:05:32.870Z,1.50
2019-03-17T14:08:03.184Z,0.93
2019-03-17T14:10:40.934Z,1.37
2019-03-17T14:13:05.218Z,1.00
2019-03-17T14:15:35.977Z,1.00
2019-03-17T14:18:05.811Z,1.33
2019-03-17T14:20:52.454Z,1.77
2019-03-17T14:23:22.511Z,1.60
2019-03-17T14:25:52.512Z,1.27
2019-03-17T14:28:22.479Z,1.03
2019-03-17T14:30:52.468Z,1.40
2019-03-17T14:33:23.495Z,2.00
2019-03-17T14:35:53.399Z,1.10
2019-03-17T14:38:26.576Z,1.10
2019-03-17T14:40:57.578Z,0.50
2019-03-17T14:43:27.526Z,0.97
2019-03-17T14:45:57.536Z,0.80
2019-03-17T14:48:27.443Z,1.40
2019-03-17T14:50:57.423Z,0.77
2019-03-17T14:53:27.674Z,0.90
2019-03-17T14:55:57.855Z,1.23
2019-03-17T14:58:27.967Z,1.37
2019-03-17T15:00:58.432Z,0.90
2019-03-17T15:03:28.518Z,0.97
2019-03-17T15:05:58.650Z,3.17
2019-03-17T15:08:28.535Z,1.90
2019-03-17T15:11:05.833Z,0.90
2019-03-17T15:13:30.077Z,0.80
2019-03-17T15:16:02.974Z,4.00
2019-03-17T15:18:31.579Z,4.23
2019-03-17T15:21:01.654Z,1.90
2019-03-17T15:23:31.626Z,1.73
2019-03-17T15:26:01.654Z,0.97
2019-03-17T15:28:31.768Z,0.60
2019-03-17T15:31:11.709Z,2.63
2019-03-17T15:33:33.887Z,3.57
2019-03-17T15:36:03.940Z,4.10
2019-03-17T15:38:33.790Z,11.03
2019-03-17T15:41:04.018Z,13.47
2019-03-17T15:43:34.087Z,6.00
2019-03-17T15:46:04.027Z,5.28
2019-03-17T15:48:33.913Z,5.03
2019-03-17T15:51:03.934Z,1.60
2019-03-17T15:53:34.404Z,1.70
2019-03-17T15:56:04.387Z,1.70
2019-03-17T15:58:34.430Z,2.03
2019-03-17T16:01:04.638Z,1.37
2019-03-17T16:03:34.821Z,1.20
2019-03-17T16:06:05.417Z,0.90
2019-03-17T16:08:35.693Z,1.03
2019-03-17T16:11:06.303Z,1.73
2019-03-17T16:13:41.177Z,1.13
2019-03-17T16:16:12.525Z,0.70
2019-03-17T16:18:47.318Z,1.30
2019-03-17T16:21:18.133Z,1.33
2019-03-17T16:23:48.366Z,1.30
2019-03-17T16:26:18.455Z,1.30
2019-03-17T16:28:48.543Z,1.10
2019-03-17T16:31:18.551Z,1.37
2019-03-17T16:33:48.961Z,1.20
2019-03-17T16:36:19.568Z,1.03
2019-03-17T16:38:49.421Z,7.23
2019-03-17T16:41:19.689Z,2.27
2019-03-17T16:43:50.229Z,2.00
2019-03-17T16:46:20.663Z,1.70
2019-03-17T16:48:52.007Z,7.93
2019-03-17T16:51:22.059Z,5.55
2019-03-17T16:53:52.488Z,3.87
2019-03-17T16:56:22.808Z,3.60
2019-03-17T16:58:54.251Z,2.40
2019-03-17T17:01:24.245Z,1.90
2019-03-17T17:03:54.484Z,3.73
2019-03-17T17:06:24.483Z,1.67
2019-03-17T17:08:55.208Z,1.40
2019-03-17T17:11:25.175Z,1.83
2019-03-17T17:13:55.433Z,1.63
2019-03-17T17:16:25.690Z,1.20
2019-03-17T17:18:56.675Z,1.07
2019-03-17T17:21:26.517Z,1.17
2019-03-17T17:23:56.456Z,1.63
2019-03-17T17:26:36.639Z,1.47
2019-03-17T17:28:58.011Z,1.80
2019-03-17T17:31:28.276Z,1.63
2019-03-17T17:33:59.055Z,2.03
2019-03-17T17:36:29.076Z,1.90
2019-03-17T17:38:59.071Z,1.50
2019-03-17T17:41:29.549Z,1.27
2019-03-17T17:43:59.747Z,1.53
2019-03-17T17:46:30.164Z,1.43
2019-03-17T17:49:00.088Z,1.27
2019-03-17T17:51:30.279Z,2.00
2019-03-17T17:54:00.573Z,1.40
2019-03-17T17:56:30.396Z,1.80
2019-03-17T17:59:00.412Z,0.90
2019-03-17T18:01:30.320Z,1.60
2019-03-17T18:04:00.523Z,1.85
2019-03-17T18:06:30.407Z,0.87
2019-03-17T18:09:00.329Z,0.90
2019-03-17T18:11:30.863Z,1.33
2019-03-17T18:14:01.348Z,1.30
2019-03-17T18:16:31.561Z,1.60
2019-03-17T18:19:01.523Z,1.73
2019-03-17T18:21:31.853Z,1.83
2019-03-17T18:24:01.835Z,2.27
2019-03-17T18:26:31.915Z,2.20
2019-03-17T18:29:02.173Z,1.70
2019-03-17T18:31:32.060Z,2.50
2019-03-17T18:34:01.827Z,3.63
2019-03-17T18:36:31.963Z,4.40
2019-03-17T18:39:02.062Z,3.20
2019-03-17T18:41:33.114Z,2.60
2019-03-17T18:44:03.128Z,2.40
2019-03-17T18:46:33.199Z,4.87
2019-03-17T18:49:02.977Z,2.80
2019-03-17T18:51:32.906Z,1.80
2019-03-17T18:54:05.415Z,5.13
2019-03-17T18:56:34.586Z,2.27
2019-03-17T18:59:04.796Z,3.63
2019-03-17T19:01:35.003Z,2.50
2019-03-17T19:04:05.004Z,3.43
2019-03-17T19:06:35.151Z,3.30
2019-03-17T19:09:07.017Z,3.27
2019-03-17T19:11:36.947Z,2.07
2019-03-17T19:14:07.014Z,2.70
2019-03-17T19:16:36.937Z,1.83
2019-03-17T19:19:06.941Z,1.90
2019-03-17T19:21:36.898Z,3.53
2019-03-17T19:24:06.847Z,3.33
2019-03-17T19:26:36.803Z,4.07
2019-03-17T19:29:06.670Z,2.97
2019-03-17T19:31:37.198Z,2.20
2019-03-17T19:34:07.092Z,2.00
2019-03-17T19:36:37.014Z,2.00
2019-03-17T19:39:07.822Z,2.00
2019-03-17T19:41:37.922Z,2.70
2019-03-17T19:44:07.903Z,2.33
2019-03-17T19:46:38.048Z,2.40
2019-03-17T19:49:08.192Z,2.20
2019-03-17T19:51:38.101Z,1.83
2019-03-17T19:54:08.004Z,2.40
2019-03-17T19:56:37.811Z,1.93
2019-03-17T19:59:07.963Z,1.83
2019-03-17T20:01:38.107Z,2.27
2019-03-17T20:04:08.022Z,1.53
2019-03-17T20:06:37.997Z,2.37
2019-03-17T20:09:08.299Z,0.83
2019-03-17T20:11:38.442Z,3.00
2019-03-17T20:14:09.394Z,2.40
2019-03-17T20:16:39.485Z,3.47
2019-03-17T20:19:09.388Z,3.13
2019-03-17T20:21:39.502Z,1.73
2019-03-17T20:24:09.303Z,2.47
2019-03-17T20:26:39.195Z,2.70
2019-03-17T20:29:09.191Z,2.23
2019-03-17T20:31:39.228Z,2.70
2019-03-17T20:34:09.260Z,1.80
2019-03-17T20:36:40.712Z,1.73
2019-03-17T20:39:10.867Z,1.23
2019-03-17T20:41:41.484Z,1.47
2019-03-17T20:44:11.604Z,2.03
2019-03-17T20:46:41.691Z,1.33
2019-03-17T20:49:11.891Z,2.00
2019-03-17T20:51:41.661Z,2.40
2019-03-17T20:54:11.538Z,1.30
2019-03-17T20:56:41.388Z,1.83
2019-03-17T20:59:11.524Z,2.57
2019-03-17T21:01:41.303Z,1.67
2019-03-17T21:04:11.516Z,1.47
2019-03-17T21:06:41.305Z,1.70
2019-03-17T21:09:12.790Z,2.07
2019-03-17T21:11:42.781Z,1.83
2019-03-17T21:14:12.581Z,2.03
2019-03-17T21:16:42.653Z,1.50
2019-03-17T21:19:12.666Z,2.10
2019-03-17T21:21:42.600Z,2.00
2019-03-17T21:24:12.554Z,2.50
2019-03-17T21:26:44.149Z,2.63
2019-03-17T21:29:13.883Z,2.17
2019-03-17T21:31:43.778Z,1.93
2019-03-17T21:34:13.650Z,1.30
2019-03-17T21:36:43.465Z,1.67
2019-03-17T21:39:13.532Z,1.67
2019-03-17T21:41:43.370Z,1.33
2019-03-17T21:44:13.172Z,2.00
2019-03-17T21:46:43.338Z,1.63
2019-03-17T21:49:14.283Z,1.80
2019-03-17T21:51:44.191Z,1.90
2019-03-17T21:54:14.070Z,2.50
2019-03-17T21:56:44.374Z,2.57
2019-03-17T21:59:15.142Z,2.27
2019-03-17T22:01:47.520Z,2.03
2019-03-17T22:04:23.306Z,3.00
2019-03-17T22:06:54.267Z,3.10
2019-03-17T22:09:25.737Z,2.53
2019-03-17T22:11:56.658Z,3.90
2019-03-17T22:14:27.080Z,4.17
2019-03-17T22:16:57.067Z,4.53
2019-03-17T22:19:26.935Z,2.43
2019-03-17T22:21:57.128Z,3.87
2019-03-17T22:24:26.946Z,2.90
2019-03-17T22:26:56.856Z,2.33
2019-03-17T22:29:26.767Z,3.13
2019-03-17T22:31:56.571Z,2.73
2019-03-17T22:34:26.449Z,2.60
2019-03-17T22:36:56.597Z,1.80
2019-03-17T22:39:26.371Z,2.27
2019-03-17T22:41:56.227Z,2.13
2019-03-17T22:44:28.112Z,1.70
2019-03-17T22:46:57.907Z,1.77
2019-03-17T22:49:28.116Z,2.27
2019-03-17T22:51:58.299Z,2.80
2019-03-17T22:54:28.607Z,2.90
2019-03-17T22:56:58.855Z,3.13
2019-03-17T22:59:28.723Z,3.27
2019-03-17T23:01:59.642Z,3.00
2019-03-17T23:04:29.473Z,3.07
2019-03-17T23:06:59.379Z,4.10
2019-03-17T23:09:29.592Z,4.20
2019-03-17T23:11:59.574Z,3.30
2019-03-17T23:14:36.743Z,4.10
2019-03-17T23:17:00.987Z,6.03
2019-03-17T23:19:30.876Z,3.63
2019-03-17T23:22:00.699Z,5.40
2019-03-17T23:24:31.067Z,3.87
2019-03-17T23:27:01.018Z,2.77
2019-03-17T23:29:31.020Z,5.27
2019-03-17T23:32:00.980Z,4.47
2019-03-17T23:34:31.147Z,5.63
2019-03-17T23:37:00.903Z,5.47
2019-03-17T23:39:31.538Z,6.07
2019-03-17T23:42:01.801Z,4.40
2019-03-17T23:44:31.622Z,5.47
2019-03-17T23:47:01.437Z,6.33
2019-03-17T23:49:31.364Z,5.27
2019-03-17T23:52:01.210Z,4.60
2019-03-17T23:54:31.071Z,5.70
2019-03-17T23:57:00.827Z,6.00
2019-03-17T23:59:31.442Z,5.87
